createdAt,value
2023-05-10T00:01:13.517Z,100.00
2023-05-10T00:03:41.512Z,100.00
2023-05-10T00:06:08.885Z,100.00
2023-05-10T00:08:36.001Z,100.00
2023-05-10T00:11:03.341Z,100.00
2023-05-10T00:13:30.765Z,100.00
2023-05-10T00:15:58.232Z,100.00
2023-05-10T00:18:25.729Z,100.00
2023-05-10T00:20:53.186Z,100.00
2023-05-10T00:23:20.500Z,100.00
2023-05-10T00:25:48.042Z,100.00
2023-05-10T00:28:15.396Z,100.00
2023-05-10T00:30:42.629Z,100.00
2023-05-10T00:33:10.156Z,100.00
2023-05-10T00:35:37.401Z,100.00
2023-05-10T00:38:04.765Z,100.00
2023-05-10T00:40:32.234Z,100.00
2023-05-10T00:43:01.553Z,100.00
2023-05-10T00:45:28.706Z,100.00
2023-05-10T00:47:57.851Z,100.00
2023-05-10T00:50:25.180Z,100.00
2023-05-10T00:52:52.565Z,100.00
2023-05-10T00:55:20.098Z,100.00
2023-05-10T00:57:47.309Z,100.00
2023-05-10T01:00:19.079Z,100.00
2023-05-10T01:02:47.563Z,100.00
2023-05-10T01:05:15.036Z,100.00
2023-05-10T01:07:42.249Z,100.00
2023-05-10T01:10:11.609Z,100.00
2023-05-10T01:12:41.347Z,100.00
2023-05-10T01:15:09.496Z,100.00
2023-05-10T01:17:39.254Z,100.00
2023-05-10T01:20:09.337Z,100.00
2023-05-10T01:22:59.678Z,100.00
2023-05-10T01:25:32.778Z,100.00
2023-05-10T01:28:26.186Z,100.00
2023-05-10T01:31:08.699Z,100.00
2023-05-10T01:33:48.877Z,100.00
2023-05-10T01:36:34.390Z,100.00
2023-05-10T01:39:23.676Z,100.00
2023-05-10T01:42:11.363Z,100.00
2023-05-10T01:44:42.346Z,100.00
2023-05-10T01:47:12.852Z,100.00
2023-05-10T01:49:51.256Z,100.00
2023-05-10T01:52:21.254Z,100.00
2023-05-10T01:54:57.267Z,100.00
2023-05-10T01:57:27.275Z,100.00
2023-05-10T01:59:55.434Z,100.00
2023-05-10T02:02:24.050Z,100.00
2023-05-10T02:04:52.677Z,100.00
2023-05-10T02:07:20.297Z,100.00
2023-05-10T02:09:49.084Z,100.00
2023-05-10T02:12:17.468Z,100.00
2023-05-10T02:14:45.476Z,100.00
2023-05-10T02:17:13.432Z,100.00
2023-05-10T02:19:41.951Z,100.00
2023-05-10T02:22:10.596Z,100.00
2023-05-10T02:24:38.492Z,100.00
2023-05-10T02:27:06.238Z,100.00
2023-05-10T02:29:33.860Z,100.00
2023-05-10T02:32:01.691Z,100.00
2023-05-10T02:34:29.673Z,100.00
2023-05-10T02:36:57.452Z,100.00
2023-05-10T02:39:26.005Z,100.00
2023-05-10T02:41:54.659Z,100.00
2023-05-10T02:44:23.633Z,100.00
2023-05-10T02:46:51.195Z,100.00
2023-05-10T02:49:20.005Z,100.00
2023-05-10T02:52:02.169Z,100.00
2023-05-10T02:54:32.776Z,100.00
2023-05-10T02:57:02.433Z,100.00
2023-05-10T02:59:30.000Z,100.00
2023-05-10T03:01:57.216Z,100.00
2023-05-10T03:04:24.449Z,100.00
2023-05-10T03:06:53.197Z,100.00
2023-05-10T03:09:20.972Z,100.00
2023-05-10T03:12:13.093Z,100.00
2023-05-10T03:14:50.733Z,100.00
2023-05-10T03:17:22.227Z,100.00
2023-05-10T03:19:57.873Z,100.00
2023-05-10T03:23:06.130Z,100.00
2023-05-10T03:25:33.651Z,100.00
2023-05-10T03:28:03.505Z,100.00
2023-05-10T03:30:31.788Z,100.00
2023-05-10T03:32:59.621Z,100.00
2023-05-10T03:35:26.880Z,100.00
2023-05-10T03:37:54.065Z,100.00
2023-05-10T03:40:21.448Z,100.00
2023-05-10T03:42:48.818Z,100.00
2023-05-10T03:45:16.598Z,100.00
2023-05-10T03:47:44.073Z,100.00
2023-05-10T03:50:11.501Z,100.00
2023-05-10T03:52:40.226Z,100.00
2023-05-10T03:55:08.698Z,100.00
2023-05-10T03:57:36.478Z,100.00
2023-05-10T04:00:04.791Z,100.00
2023-05-10T04:02:41.768Z,100.00
2023-05-10T04:05:10.043Z,100.00
2023-05-10T04:07:37.243Z,100.00
2023-05-10T04:10:05.224Z,100.00
2023-05-10T04:12:32.607Z,100.00
2023-05-10T04:14:59.758Z,100.00
2023-05-10T04:17:26.892Z,100.00
2023-05-10T04:19:55.837Z,100.00
2023-05-10T04:22:22.985Z,100.00
2023-05-10T04:24:50.363Z,100.00
2023-05-10T04:27:17.928Z,100.00
2023-05-10T04:29:45.036Z,100.00
2023-05-10T04:32:12.262Z,100.00
2023-05-10T04:34:39.680Z,100.00
2023-05-10T04:37:07.448Z,100.00
2023-05-10T04:39:34.717Z,100.00
2023-05-10T04:42:03.972Z,100.00
2023-05-10T04:44:31.791Z,100.00
2023-05-10T04:46:59.106Z,100.00
2023-05-10T04:49:26.575Z,100.00
2023-05-10T04:51:53.729Z,100.00
2023-05-10T04:54:21.101Z,100.00
2023-05-10T04:56:48.519Z,100.00
2023-05-10T04:59:15.871Z,100.00
2023-05-10T05:01:43.046Z,100.00
2023-05-10T05:04:10.677Z,99.51
2023-05-10T05:06:37.785Z,99.92
2023-05-10T05:09:04.941Z,99.75
2023-05-10T05:11:32.351Z,99.20
2023-05-10T05:14:00.325Z,97.50
2023-05-10T05:16:27.870Z,95.51
2023-05-10T05:18:55.618Z,95.72
2023-05-10T05:21:23.372Z,93.96
2023-05-10T05:23:51.293Z,88.70
2023-05-10T05:26:18.818Z,73.63
2023-05-10T05:28:45.994Z,58.82
2023-05-10T05:31:13.249Z,53.87
2023-05-10T05:33:40.931Z,46.31
2023-05-10T05:36:08.461Z,43.13
2023-05-10T05:38:35.667Z,42.02
2023-05-10T05:41:03.692Z,43.67
2023-05-10T05:43:31.049Z,42.38
2023-05-10T05:45:59.151Z,40.09
2023-05-10T05:48:26.857Z,39.15
2023-05-10T05:50:57.802Z,39.57
2023-05-10T05:53:26.779Z,39.16
2023-05-10T05:55:55.353Z,39.66
2023-05-10T05:58:23.667Z,39.86
2023-05-10T06:00:52.115Z,39.09
2023-05-10T06:03:20.081Z,38.26
2023-05-10T06:05:47.640Z,36.16
2023-05-10T06:08:15.054Z,36.19
2023-05-10T06:10:42.608Z,37.14
2023-05-10T06:13:09.886Z,33.41
2023-05-10T06:15:37.126Z,33.96
2023-05-10T06:18:04.744Z,34.91
2023-05-10T06:20:32.698Z,35.02
2023-05-10T06:22:59.993Z,33.62
2023-05-10T06:25:27.621Z,33.46
2023-05-10T06:27:58.528Z,34.15
2023-05-10T06:30:29.924Z,34.74
2023-05-10T06:32:58.141Z,34.87
2023-05-10T06:35:25.632Z,33.88
2023-05-10T06:37:52.938Z,33.92
2023-05-10T06:40:20.754Z,33.05
2023-05-10T06:42:48.605Z,34.82
2023-05-10T06:45:16.889Z,33.72
2023-05-10T06:47:44.730Z,33.49
2023-05-10T06:50:15.035Z,32.54
2023-05-10T06:52:42.404Z,33.15
2023-05-10T06:55:10.630Z,33.13
2023-05-10T06:57:37.827Z,31.08
2023-05-10T07:00:05.961Z,34.54
2023-05-10T07:02:33.818Z,37.69
2023-05-10T07:05:02.760Z,36.89
2023-05-10T07:07:30.896Z,39.91
2023-05-10T07:09:58.907Z,38.08
2023-05-10T07:12:26.456Z,37.60
2023-05-10T07:14:53.928Z,37.13
2023-05-10T07:17:21.642Z,39.91
2023-05-10T07:19:48.852Z,40.38
2023-05-10T07:22:17.689Z,42.10
2023-05-10T07:24:45.429Z,41.00
2023-05-10T07:27:13.941Z,42.27
2023-05-10T07:29:41.098Z,41.96
2023-05-10T07:32:09.029Z,37.81
2023-05-10T07:34:36.328Z,36.70
2023-05-10T07:37:03.602Z,36.08
2023-05-10T07:39:31.048Z,36.55
2023-05-10T07:41:58.263Z,38.07
2023-05-10T07:44:25.435Z,41.83
2023-05-10T07:46:53.238Z,40.58
2023-05-10T07:49:20.584Z,37.45
2023-05-10T07:51:47.786Z,38.55
2023-05-10T07:54:15.305Z,36.36
2023-05-10T07:56:46.634Z,36.38
2023-05-10T07:59:18.093Z,35.66
2023-05-10T08:01:46.053Z,37.56
2023-05-10T08:04:13.904Z,37.91
2023-05-10T08:06:41.682Z,36.86
2023-05-10T08:09:09.630Z,38.12
2023-05-10T08:11:37.173Z,40.77
2023-05-10T08:14:04.674Z,41.52
2023-05-10T08:16:32.079Z,43.61
2023-05-10T08:18:59.694Z,42.44
2023-05-10T08:21:27.331Z,40.21
2023-05-10T08:23:54.630Z,40.17
2023-05-10T08:26:22.838Z,38.24
2023-05-10T08:28:50.142Z,38.00
2023-05-10T08:31:17.630Z,39.12
2023-05-10T08:33:45.684Z,38.50
2023-05-10T08:36:15.265Z,39.52
2023-05-10T08:38:42.788Z,41.81
2023-05-10T08:41:11.357Z,40.39
2023-05-10T08:43:38.774Z,39.73
2023-05-10T08:46:06.605Z,39.75
2023-05-10T08:48:35.806Z,39.22
2023-05-10T08:51:04.353Z,38.80
2023-05-10T08:53:32.893Z,39.30
2023-05-10T08:56:00.464Z,41.33
2023-05-10T08:58:27.698Z,41.42
2023-05-10T09:00:55.102Z,43.63
2023-05-10T09:03:22.866Z,42.73
2023-05-10T09:05:50.683Z,44.43
2023-05-10T09:08:18.714Z,46.02
2023-05-10T09:10:48.625Z,41.92
2023-05-10T09:13:16.744Z,44.96
2023-05-10T09:15:45.745Z,44.50
2023-05-10T09:18:13.690Z,45.75
2023-05-10T09:20:41.584Z,46.27
2023-05-10T09:23:09.176Z,45.39
2023-05-10T09:25:37.388Z,45.42
2023-05-10T09:28:07.557Z,45.12
2023-05-10T09:30:34.796Z,43.51
2023-05-10T09:33:03.014Z,42.12
2023-05-10T09:35:32.488Z,42.77
2023-05-10T09:38:05.357Z,43.94
2023-05-10T09:40:33.148Z,43.01
2023-05-10T09:43:01.471Z,42.67
2023-05-10T09:45:31.193Z,43.45
2023-05-10T09:48:00.292Z,43.14
2023-05-10T09:50:27.930Z,44.65
2023-05-10T09:52:55.961Z,43.17
2023-05-10T09:55:25.697Z,43.81
2023-05-10T09:58:03.341Z,43.81
2023-05-10T10:00:36.507Z,44.23
2023-05-10T10:03:04.838Z,43.34
2023-05-10T10:05:36.335Z,42.81
2023-05-10T10:08:05.792Z,42.67
2023-05-10T10:10:34.590Z,45.40
2023-05-10T10:13:02.707Z,46.26
2023-05-10T10:15:30.442Z,45.17
2023-05-10T10:17:57.893Z,43.15
2023-05-10T10:20:26.231Z,42.88
2023-05-10T10:22:54.634Z,42.01
2023-05-10T10:25:25.585Z,42.25
2023-05-10T10:27:53.082Z,41.51
2023-05-10T10:30:47.243Z,42.03
2023-05-10T10:33:37.887Z,43.16
2023-05-10T10:36:05.981Z,45.64
2023-05-10T10:38:48.442Z,46.45
2023-05-10T10:41:54.985Z,45.56
2023-05-10T10:44:30.491Z,47.58
2023-05-10T10:47:09.407Z,47.01
2023-05-10T10:49:46.068Z,44.15
2023-05-10T10:52:18.964Z,43.58
2023-05-10T10:55:00.884Z,44.61
2023-05-10T10:57:31.196Z,43.86
2023-05-10T11:00:23.427Z,42.57
2023-05-10T11:02:53.997Z,43.76
2023-05-10T11:05:24.478Z,45.16
2023-05-10T11:07:57.572Z,46.11
2023-05-10T11:10:26.003Z,45.77
2023-05-10T11:13:32.955Z,46.81
2023-05-10T11:16:10.776Z,43.94
2023-05-10T11:18:39.033Z,42.93
2023-05-10T11:21:06.492Z,40.91
2023-05-10T11:23:49.701Z,41.97
2023-05-10T11:26:17.913Z,40.93
2023-05-10T11:28:46.547Z,41.75
2023-05-10T11:31:16.075Z,42.11
2023-05-10T11:33:48.755Z,40.64
2023-05-10T11:36:21.818Z,40.62
2023-05-10T11:38:49.727Z,40.69
2023-05-10T11:41:18.911Z,39.64
2023-05-10T11:43:51.802Z,41.65
2023-05-10T11:46:22.666Z,40.66
2023-05-10T11:48:52.339Z,40.20
2023-05-10T11:51:24.673Z,40.44
2023-05-10T11:53:54.499Z,40.91
2023-05-10T11:56:22.241Z,41.50
2023-05-10T11:58:57.215Z,41.18
2023-05-10T12:01:25.945Z,40.19
2023-05-10T12:03:55.319Z,40.31
2023-05-10T12:06:23.295Z,41.10
2023-05-10T12:08:56.532Z,42.73
2023-05-10T12:11:28.731Z,42.97
2023-05-10T12:13:57.732Z,41.98
2023-05-10T12:16:27.176Z,42.45
2023-05-10T12:18:58.135Z,42.86
2023-05-10T12:21:26.482Z,41.97
2023-05-10T12:23:56.631Z,41.70
2023-05-10T12:26:25.596Z,41.86
2023-05-10T12:31:59.979Z,39.83
2023-05-10T12:34:31.437Z,39.33
2023-05-10T12:36:59.355Z,39.42
2023-05-10T12:39:26.626Z,37.83
2023-05-10T12:41:54.172Z,39.01
2023-05-10T12:44:21.945Z,39.69
2023-05-10T12:46:49.168Z,39.86
2023-05-10T12:49:17.805Z,40.02
2023-05-10T12:51:45.098Z,40.26
2023-05-10T12:54:12.646Z,40.36
2023-05-10T12:56:41.965Z,39.51
2023-05-10T12:59:09.276Z,39.33
2023-05-10T13:01:36.564Z,39.83
2023-05-10T13:04:04.224Z,40.92
2023-05-10T13:06:31.857Z,41.84
2023-05-10T13:08:59.104Z,41.04
2023-05-10T13:11:26.530Z,42.14
2023-05-10T13:13:53.785Z,40.61
2023-05-10T13:16:21.065Z,39.68
2023-05-10T13:18:48.491Z,38.97
2023-05-10T13:21:15.792Z,39.30
2023-05-10T13:23:42.895Z,39.74
2023-05-10T13:26:10.670Z,37.71
2023-05-10T13:28:39.802Z,37.65
2023-05-10T13:31:07.149Z,37.42
2023-05-10T13:33:34.713Z,38.36
2023-05-10T13:36:02.019Z,38.93
2023-05-10T13:38:29.217Z,38.60
2023-05-10T13:40:56.858Z,38.74
2023-05-10T13:43:25.058Z,37.99
2023-05-10T13:45:53.317Z,38.24
2023-05-10T13:48:20.746Z,38.35
2023-05-10T13:50:48.170Z,39.10
2023-05-10T13:53:15.667Z,40.17
2023-05-10T13:55:43.376Z,38.99
2023-05-10T13:58:10.625Z,39.30
2023-05-10T14:00:37.948Z,38.30
2023-05-10T14:03:06.397Z,38.59
2023-05-10T14:05:35.789Z,39.04
2023-05-10T14:08:04.823Z,39.53
2023-05-10T14:10:32.502Z,39.64
2023-05-10T14:13:00.229Z,39.22
2023-05-10T14:15:27.504Z,38.88
2023-05-10T14:17:55.156Z,39.25
2023-05-10T14:20:22.570Z,38.66
2023-05-10T14:22:49.785Z,38.45
2023-05-10T14:25:17.795Z,38.04
2023-05-10T14:27:45.257Z,37.98
2023-05-10T14:30:13.088Z,38.80
2023-05-10T14:32:40.750Z,38.68
2023-05-10T14:35:09.034Z,37.29
2023-05-10T14:37:38.594Z,37.32
2023-05-10T14:40:07.597Z,36.97
2023-05-10T14:42:34.976Z,37.85
2023-05-10T14:45:02.242Z,38.37
2023-05-10T14:47:30.088Z,37.85
2023-05-10T14:49:57.350Z,38.20
2023-05-10T14:52:24.709Z,37.67
2023-05-10T14:54:54.984Z,38.14
2023-05-10T14:57:22.221Z,37.42
2023-05-10T14:59:49.372Z,36.75
2023-05-10T15:02:17.348Z,36.86
2023-05-10T15:04:45.014Z,36.49
2023-05-10T15:07:15.369Z,35.75
2023-05-10T15:09:42.836Z,36.30
2023-05-10T15:12:10.105Z,36.37
2023-05-10T15:14:37.745Z,36.45
2023-05-10T15:17:07.354Z,35.14
2023-05-10T15:19:34.596Z,35.04
2023-05-10T15:22:01.905Z,35.91
2023-05-10T15:24:30.008Z,36.60
2023-05-10T15:27:01.086Z,37.81
2023-05-10T15:29:32.581Z,38.06
2023-05-10T15:32:02.790Z,38.63
2023-05-10T15:34:31.262Z,39.35
2023-05-10T15:37:00.525Z,38.33
2023-05-10T15:39:27.758Z,38.61
2023-05-10T15:41:54.901Z,38.67
2023-05-10T15:44:25.387Z,39.41
2023-05-10T15:46:53.641Z,39.11
2023-05-10T15:49:20.801Z,38.76
2023-05-10T15:51:48.641Z,39.45
2023-05-10T15:54:15.895Z,39.77
2023-05-10T15:56:43.083Z,39.85
2023-05-10T15:59:11.920Z,39.10
2023-05-10T16:01:39.199Z,39.11
2023-05-10T16:04:06.634Z,39.56
2023-05-10T16:06:35.308Z,39.29
2023-05-10T16:09:02.631Z,39.57
2023-05-10T16:11:30.235Z,39.32
2023-05-10T16:13:57.608Z,39.17
2023-05-10T16:16:25.004Z,38.79
2023-05-10T16:18:55.194Z,38.40
2023-05-10T16:21:23.804Z,38.57
2023-05-10T16:23:51.014Z,38.79
2023-05-10T16:26:18.449Z,38.43
2023-05-10T16:28:45.621Z,38.67
2023-05-10T16:31:13.026Z,38.57
2023-05-10T16:33:40.612Z,39.10
2023-05-10T16:36:07.912Z,39.43
2023-05-10T16:38:35.104Z,39.76
2023-05-10T16:41:03.644Z,40.26
2023-05-10T16:43:32.513Z,40.26
2023-05-10T16:45:59.774Z,39.95
2023-05-10T16:48:27.326Z,39.77
2023-05-10T16:50:54.756Z,40.15
2023-05-10T16:53:22.380Z,40.46
2023-05-10T16:55:50.178Z,40.86
2023-05-10T16:58:17.321Z,41.06
2023-05-10T17:00:44.548Z,41.10
2023-05-10T17:03:12.586Z,41.16
2023-05-10T17:05:40.669Z,41.83
2023-05-10T17:08:09.187Z,42.00
2023-05-10T17:10:40.268Z,41.29
2023-05-10T17:13:10.990Z,42.30
2023-05-10T17:15:39.519Z,42.78
2023-05-10T17:18:07.718Z,43.14
2023-05-10T17:20:35.287Z,43.41
2023-05-10T17:23:03.489Z,43.46
2023-05-10T17:25:30.857Z,44.05
2023-05-10T17:27:58.142Z,44.99
2023-05-10T17:30:28.242Z,45.14
2023-05-10T17:32:55.566Z,45.11
2023-05-10T17:35:22.982Z,45.86
2023-05-10T17:37:50.509Z,46.17
2023-05-10T17:40:18.386Z,46.36
2023-05-10T17:42:46.077Z,46.56
2023-05-10T17:45:13.951Z,46.53
2023-05-10T17:47:41.246Z,46.59
2023-05-10T17:50:10.250Z,47.19
2023-05-10T17:52:37.961Z,47.12
2023-05-10T17:55:07.541Z,47.63
2023-05-10T17:57:38.181Z,47.34
2023-05-10T18:00:10.278Z,47.23
2023-05-10T18:02:37.841Z,47.70
2023-05-10T18:05:07.484Z,48.37
2023-05-10T18:07:52.830Z,48.00
2023-05-10T18:10:28.372Z,48.26
2023-05-10T18:12:58.465Z,48.28
2023-05-10T18:15:27.896Z,48.52
2023-05-10T18:17:56.823Z,48.99
2023-05-10T18:20:24.362Z,49.60
2023-05-10T18:22:55.067Z,49.88
2023-05-10T18:25:22.991Z,50.14
2023-05-10T18:27:50.991Z,50.88
2023-05-10T18:30:18.755Z,51.42
2023-05-10T18:32:46.371Z,51.88
2023-05-10T18:35:19.482Z,52.13
2023-05-10T18:37:48.784Z,52.43
2023-05-10T18:40:17.300Z,52.95
2023-05-10T18:42:46.723Z,53.33
2023-05-10T18:45:15.217Z,53.48
2023-05-10T18:47:43.179Z,54.13
2023-05-10T18:50:11.102Z,54.79
2023-05-10T18:52:38.867Z,54.95
2023-05-10T18:55:06.887Z,55.03
2023-05-10T18:57:41.691Z,54.75
2023-05-10T19:00:11.521Z,55.46
2023-05-10T19:02:40.148Z,55.27
2023-05-10T19:05:08.759Z,54.86
2023-05-10T19:07:38.799Z,55.20
2023-05-10T19:10:07.647Z,55.48
2023-05-10T19:12:37.701Z,55.53
2023-05-10T19:15:05.964Z,55.52
2023-05-10T19:17:34.778Z,55.70
2023-05-10T19:20:06.935Z,55.32
2023-05-10T19:22:47.243Z,55.38
2023-05-10T19:25:29.508Z,55.24
2023-05-10T19:28:02.117Z,55.14
2023-05-10T19:30:31.949Z,55.67
2023-05-10T19:32:59.548Z,55.50
2023-05-10T19:35:27.828Z,55.33
2023-05-10T19:37:56.164Z,55.05
2023-05-10T19:40:23.628Z,55.34
2023-05-10T19:42:51.507Z,55.42
2023-05-10T19:45:19.825Z,55.04
2023-05-10T19:47:48.119Z,55.31
2023-05-10T19:50:19.221Z,55.67
2023-05-10T19:52:47.324Z,55.42
2023-05-10T19:55:20.134Z,55.84
2023-05-10T19:57:49.035Z,56.45
2023-05-10T20:00:16.848Z,56.18
2023-05-10T20:02:44.435Z,56.16
2023-05-10T20:05:12.049Z,56.34
2023-05-10T20:07:43.450Z,56.36
2023-05-10T20:10:13.788Z,56.20
2023-05-10T20:12:41.278Z,56.22
2023-05-10T20:15:09.229Z,56.71
2023-05-10T20:17:36.980Z,56.50
2023-05-10T20:20:05.132Z,56.51
2023-05-10T20:22:32.810Z,56.99
2023-05-10T20:25:00.671Z,56.96
2023-05-10T20:27:28.204Z,56.88
2023-05-10T20:29:56.637Z,57.11
2023-05-10T20:32:24.447Z,57.62
2023-05-10T20:34:51.953Z,57.35
2023-05-10T20:37:19.786Z,57.77
2023-05-10T20:39:49.807Z,57.80
2023-05-10T20:42:17.696Z,57.77
2023-05-10T20:44:44.944Z,57.88
2023-05-10T20:47:16.965Z,58.49
2023-05-10T20:49:44.255Z,58.38
2023-05-10T20:52:11.860Z,58.01
2023-05-10T20:54:39.477Z,58.35
2023-05-10T20:57:06.829Z,59.01
2023-05-10T20:59:34.237Z,58.81
2023-05-10T21:02:01.828Z,58.95
2023-05-10T21:04:29.382Z,58.93
2023-05-10T21:06:57.118Z,58.58
2023-05-10T21:09:24.838Z,58.27
2023-05-10T21:11:52.372Z,58.13
2023-05-10T21:14:20.704Z,58.64
2023-05-10T21:16:48.234Z,59.02
2023-05-10T21:19:17.389Z,59.24
2023-05-10T21:21:44.664Z,58.98
2023-05-10T21:24:12.577Z,59.28
2023-05-10T21:26:42.524Z,58.99
2023-05-10T21:29:09.712Z,58.89
2023-05-10T21:31:37.622Z,59.15
2023-05-10T21:34:04.800Z,59.01
2023-05-10T21:36:32.154Z,58.34
2023-05-10T21:38:59.829Z,59.03
2023-05-10T21:41:27.065Z,59.36
2023-05-10T21:43:54.220Z,59.37
2023-05-10T21:46:21.755Z,59.00
2023-05-10T21:48:48.872Z,59.54
2023-05-10T21:51:16.072Z,61.04
2023-05-10T21:53:43.709Z,61.50
2023-05-10T21:56:10.958Z,62.15
2023-05-10T21:58:38.081Z,62.04
2023-05-10T22:01:05.740Z,62.45
2023-05-10T22:03:33.217Z,62.35
2023-05-10T22:06:00.482Z,63.55
2023-05-10T22:08:27.644Z,63.47
2023-05-10T22:10:55.377Z,62.94
2023-05-10T22:13:22.514Z,62.10
2023-05-10T22:15:49.814Z,62.76
2023-05-10T22:18:17.553Z,63.57
2023-05-10T22:20:46.550Z,64.42
2023-05-10T22:23:14.057Z,64.19
2023-05-10T22:25:41.436Z,63.48
2023-05-10T22:28:09.348Z,64.95
2023-05-10T22:30:37.671Z,63.91
2023-05-10T22:33:05.334Z,64.34
2023-05-10T22:35:32.654Z,64.83
2023-05-10T22:37:59.977Z,64.20
2023-05-10T22:40:27.511Z,64.33
2023-05-10T22:42:54.846Z,64.77
2023-05-10T22:45:22.110Z,65.77
2023-05-10T22:47:49.632Z,64.12
2023-05-10T22:50:17.204Z,64.81
2023-05-10T22:52:44.649Z,64.85
2023-05-10T22:55:12.146Z,65.55
2023-05-10T22:57:39.366Z,65.28
2023-05-10T23:00:07.479Z,65.80
2023-05-10T23:02:35.118Z,66.28
2023-05-10T23:05:02.523Z,65.96
2023-05-10T23:07:29.899Z,66.11
2023-05-10T23:09:57.380Z,65.39
2023-05-10T23:12:25.288Z,65.59
2023-05-10T23:14:52.585Z,65.31
2023-05-10T23:17:20.014Z,66.45
2023-05-10T23:19:47.302Z,66.80
2023-05-10T23:22:14.504Z,67.14
2023-05-10T23:24:42.269Z,66.76
2023-05-10T23:27:09.415Z,66.10
2023-05-10T23:29:36.570Z,66.59
2023-05-10T23:32:04.269Z,67.19
2023-05-10T23:34:32.305Z,66.83
2023-05-10T23:36:59.490Z,66.73
2023-05-10T23:39:27.127Z,67.52
2023-05-10T23:41:54.970Z,68.80
2023-05-10T23:44:22.133Z,68.56
2023-05-10T23:46:49.552Z,68.74
2023-05-10T23:49:17.419Z,69.15
2023-05-10T23:51:44.612Z,70.06
2023-05-10T23:54:12.384Z,68.98
2023-05-10T23:56:39.480Z,70.57
2023-05-10T23:59:06.836Z,71.43
